createdAt,value
2022-08-23T00:02:22.929Z,3.00
2022-08-23T00:05:08.456Z,2.93
2022-08-23T00:07:39.213Z,3.10
2022-08-23T00:10:09.227Z,3.20
2022-08-23T00:12:36.491Z,3.37
2022-08-23T00:15:08.788Z,3.50
2022-08-23T00:17:39.557Z,3.57
2022-08-23T00:20:08.340Z,3.60
2022-08-23T00:22:37.171Z,3.30
2022-08-23T00:25:06.559Z,3.00
2022-08-23T00:27:34.124Z,3.13
2022-08-23T00:30:01.654Z,3.40
2022-08-23T00:32:33.123Z,3.43
2022-08-23T00:35:01.557Z,3.23
2022-08-23T00:37:29.904Z,3.80
2022-08-23T00:39:56.462Z,3.33
2022-08-23T00:42:41.625Z,3.57
2022-08-23T00:45:28.973Z,3.43
2022-08-23T00:47:55.948Z,3.00
2022-08-23T00:50:35.303Z,3.17
2022-08-23T00:53:12.910Z,3.40
2022-08-23T00:55:42.757Z,3.17
2022-08-23T00:58:09.967Z,3.30
2022-08-23T01:00:37.187Z,3.40
2022-08-23T01:03:07.980Z,3.53
2022-08-23T01:05:45.775Z,3.33
2022-08-23T01:08:12.330Z,3.03
2022-08-23T01:10:47.978Z,3.00
2022-08-23T01:13:19.466Z,3.23
2022-08-23T01:15:50.665Z,3.20
2022-08-23T01:18:22.329Z,3.30
2022-08-23T01:20:56.565Z,3.13
2022-08-23T01:23:37.617Z,3.33
2022-08-23T01:26:05.274Z,3.10
2022-08-23T01:28:33.134Z,3.30
2022-08-23T01:31:00.916Z,3.00
2022-08-23T01:33:29.868Z,3.10
2022-08-23T01:35:58.746Z,3.37
2022-08-23T01:38:28.681Z,3.10
2022-08-23T01:41:00.077Z,3.20
2022-08-23T01:43:28.888Z,3.40
2022-08-23T01:45:55.846Z,3.33
2022-08-23T01:48:23.906Z,3.23
2022-08-23T01:50:50.734Z,3.37
2022-08-23T01:53:17.519Z,3.27
2022-08-23T01:55:48.371Z,3.20
2022-08-23T01:58:17.291Z,3.13
2022-08-23T02:00:44.545Z,3.20
2022-08-23T02:03:13.477Z,2.90
2022-08-23T02:05:41.412Z,3.50
2022-08-23T02:08:28.787Z,3.30
2022-08-23T02:10:56.951Z,3.40
2022-08-23T02:13:25.922Z,3.07
2022-08-23T02:15:52.746Z,3.07
2022-08-23T02:18:21.112Z,3.43
2022-08-23T02:20:51.613Z,3.50
2022-08-23T02:23:20.358Z,2.80
2022-08-23T02:25:46.893Z,3.57
2022-08-23T02:28:14.751Z,3.07
2022-08-23T02:30:41.480Z,3.60
2022-08-23T02:33:09.886Z,3.50
2022-08-23T02:35:37.699Z,3.30
2022-08-23T02:38:09.412Z,3.57
2022-08-23T02:40:36.368Z,3.37
2022-08-23T02:43:04.789Z,3.50
2022-08-23T02:45:33.005Z,3.40
2022-08-23T02:48:01.093Z,3.40
2022-08-23T02:50:36.069Z,3.50
2022-08-23T02:53:04.406Z,3.20
2022-08-23T02:55:33.164Z,3.10
2022-08-23T02:58:01.972Z,3.30
2022-08-23T03:00:30.418Z,3.60
2022-08-23T03:02:58.090Z,3.27
2022-08-23T03:05:25.494Z,3.10
2022-08-23T03:07:52.170Z,3.33
2022-08-23T03:10:21.777Z,3.23
2022-08-23T03:12:54.808Z,3.40
2022-08-23T03:15:21.472Z,3.30
2022-08-23T03:17:48.984Z,3.37
2022-08-23T03:20:23.352Z,3.60
2022-08-23T03:22:54.718Z,3.33
2022-08-23T03:25:26.426Z,3.70
2022-08-23T03:28:12.019Z,4.10
2022-08-23T03:30:43.293Z,3.67
2022-08-23T03:33:10.505Z,3.97
2022-08-23T03:35:37.338Z,4.40
2022-08-23T03:38:04.454Z,3.70
2022-08-23T03:40:31.723Z,3.90
2022-08-23T03:42:59.213Z,3.93
2022-08-23T03:45:29.308Z,3.93
2022-08-23T03:47:56.393Z,4.47
2022-08-23T03:50:23.098Z,4.43
2022-08-23T03:52:51.017Z,4.30
2022-08-23T03:55:18.418Z,4.33
2022-08-23T03:57:49.035Z,3.83
2022-08-23T04:00:20.375Z,4.27
2022-08-23T04:02:49.497Z,3.63
2022-08-23T04:05:23.116Z,4.00
2022-08-23T04:08:10.171Z,4.00
2022-08-23T04:10:40.830Z,3.77
2022-08-23T04:13:09.131Z,3.67
2022-08-23T04:15:36.126Z,3.70
2022-08-23T04:18:03.082Z,3.33
2022-08-23T04:20:30.223Z,3.40
2022-08-23T04:23:00.562Z,3.30
2022-08-23T04:25:35.505Z,3.87
2022-08-23T04:28:04.237Z,3.77
2022-08-23T04:30:32.993Z,3.50
2022-08-23T04:33:01.694Z,3.80
2022-08-23T04:35:30.186Z,3.77
2022-08-23T04:37:56.984Z,3.50
2022-08-23T04:40:42.684Z,3.80
2022-08-23T04:43:09.835Z,3.63
2022-08-23T04:45:39.032Z,3.47
2022-08-23T04:48:10.475Z,3.17
2022-08-23T04:50:41.335Z,3.53
2022-08-23T04:53:18.285Z,3.77
2022-08-23T04:55:55.940Z,3.50
2022-08-23T04:58:22.562Z,3.50
2022-08-23T05:00:52.552Z,3.73
2022-08-23T05:03:24.299Z,3.67
2022-08-23T05:05:52.741Z,3.93
2022-08-23T05:08:22.349Z,3.33
2022-08-23T05:10:48.901Z,3.50
2022-08-23T05:13:15.959Z,3.33
2022-08-23T05:15:43.658Z,3.47
2022-08-23T05:18:10.715Z,3.23
2022-08-23T05:20:39.322Z,3.27
2022-08-23T05:23:05.997Z,3.40
2022-08-23T05:25:52.422Z,3.80
2022-08-23T05:28:33.465Z,3.27
2022-08-23T05:31:17.649Z,3.50
2022-08-23T05:33:51.913Z,3.70
2022-08-23T05:36:35.347Z,3.23
2022-08-23T05:39:01.875Z,3.80
2022-08-23T05:41:37.675Z,3.20
2022-08-23T05:44:06.862Z,3.50
2022-08-23T05:46:34.421Z,3.53
2022-08-23T05:49:21.087Z,3.20
2022-08-23T05:51:51.639Z,3.60
2022-08-23T05:54:20.421Z,3.57
2022-08-23T05:56:59.346Z,3.30
2022-08-23T05:59:25.860Z,3.43
2022-08-23T06:01:52.766Z,3.90
2022-08-23T06:04:19.969Z,3.53
2022-08-23T06:06:48.454Z,3.50
2022-08-23T06:09:18.242Z,3.80
2022-08-23T06:11:46.651Z,3.70
2022-08-23T06:14:14.442Z,3.80
2022-08-23T06:16:46.496Z,3.50
2022-08-23T06:19:17.493Z,3.83
2022-08-23T06:21:47.815Z,3.30
2022-08-23T06:24:19.551Z,3.33
2022-08-23T06:26:54.085Z,3.43
2022-08-23T06:29:23.686Z,3.80
2022-08-23T06:32:10.239Z,3.73
2022-08-23T06:34:43.806Z,3.77
2022-08-23T06:37:43.755Z,3.57
2022-08-23T06:40:39.674Z,3.80
2022-08-23T06:43:40.183Z,3.63
2022-08-23T06:46:23.535Z,3.70
2022-08-23T06:48:51.736Z,3.53
2022-08-23T06:51:23.763Z,3.53
2022-08-23T06:54:07.544Z,3.40
2022-08-23T06:56:49.331Z,3.93
2022-08-23T06:59:21.406Z,3.40
2022-08-23T07:02:09.427Z,3.50
2022-08-23T07:04:55.833Z,3.70
2022-08-23T07:07:37.608Z,3.40
2022-08-23T07:10:11.362Z,3.50
2022-08-23T07:12:42.089Z,3.50
2022-08-23T07:15:11.563Z,3.40
2022-08-23T07:17:39.593Z,3.40
2022-08-23T07:20:07.444Z,3.70
2022-08-23T07:22:36.478Z,3.60
2022-08-23T07:25:04.540Z,3.40
2022-08-23T07:27:33.323Z,3.80
2022-08-23T07:30:07.059Z,4.20
2022-08-23T07:32:35.846Z,3.60
2022-08-23T07:35:22.225Z,3.57
2022-08-23T07:37:51.334Z,3.70
2022-08-23T07:40:20.504Z,3.60
2022-08-23T07:42:56.965Z,3.60
2022-08-23T07:45:26.042Z,3.33
2022-08-23T07:47:56.797Z,3.40
2022-08-23T07:50:25.511Z,2.90
2022-08-23T07:53:00.560Z,3.40
2022-08-23T07:55:32.237Z,3.57
2022-08-23T07:58:09.145Z,3.40
2022-08-23T08:00:48.897Z,3.20
2022-08-23T08:03:35.873Z,4.27
2022-08-23T08:06:42.756Z,3.13
2022-08-23T08:09:10.713Z,3.63
2022-08-23T08:11:37.817Z,3.30
2022-08-23T08:14:08.292Z,3.37
2022-08-23T08:16:49.363Z,3.20
2022-08-23T08:19:25.190Z,3.00
2022-08-23T08:22:13.028Z,3.00
2022-08-23T08:25:06.840Z,3.20
2022-08-23T08:27:36.069Z,3.10
2022-08-23T08:30:05.721Z,3.50
2022-08-23T08:32:33.111Z,3.13
2022-08-23T08:35:00.442Z,2.90
2022-08-23T08:37:32.107Z,3.03
2022-08-23T08:39:59.889Z,2.60
2022-08-23T08:43:00.568Z,2.73
2022-08-23T08:45:38.385Z,3.23
2022-08-23T08:48:13.305Z,2.92
2022-08-23T08:50:52.091Z,3.30
2022-08-23T08:53:25.409Z,3.30
2022-08-23T08:56:29.740Z,2.83
2022-08-23T08:59:36.870Z,3.10
2022-08-23T09:02:07.474Z,3.20
2022-08-23T09:05:04.803Z,2.93
2022-08-23T09:07:56.495Z,3.00
2022-08-23T09:10:53.247Z,2.90
2022-08-23T09:13:53.681Z,2.90
2022-08-23T09:16:39.093Z,3.05
2022-08-23T09:19:09.794Z,3.15
2022-08-23T09:21:54.210Z,3.00
2022-08-23T09:24:20.938Z,3.00
2022-08-23T09:27:02.107Z,3.08
2022-08-23T09:29:33.545Z,2.30
2022-08-23T09:32:03.958Z,2.88
2022-08-23T09:34:35.061Z,2.60
2022-08-23T09:37:18.487Z,2.85
2022-08-23T09:39:51.411Z,2.97
2022-08-23T09:42:39.532Z,3.25
2022-08-23T09:45:37.070Z,3.00
2022-08-23T09:48:07.209Z,2.80
2022-08-23T09:50:54.740Z,2.90
2022-08-23T09:53:30.048Z,2.60
2022-08-23T09:56:11.052Z,2.75
2022-08-23T09:58:44.408Z,3.25
2022-08-23T10:01:24.106Z,2.65
2022-08-23T10:04:25.677Z,2.75
2022-08-23T10:06:52.974Z,2.90
2022-08-23T10:09:30.229Z,2.80
2022-08-23T10:11:59.413Z,2.42
2022-08-23T10:17:34.227Z,2.33
2022-08-23T10:20:22.074Z,2.08
2022-08-23T10:23:04.845Z,2.30
2022-08-23T10:25:52.705Z,2.05
2022-08-23T10:29:00.565Z,2.10
2022-08-23T10:31:53.245Z,2.00
2022-08-23T10:34:41.372Z,2.00
2022-08-23T10:37:14.385Z,1.90
2022-08-23T10:39:56.675Z,2.08
2022-08-23T10:42:53.291Z,1.77
2022-08-23T10:45:28.666Z,2.05
2022-08-23T10:48:13.765Z,1.58
2022-08-23T10:50:52.045Z,1.52
2022-08-23T10:53:27.140Z,2.00
2022-08-23T10:56:04.441Z,1.88
2022-08-23T10:58:43.427Z,1.55
2022-08-23T11:01:26.855Z,1.63
2022-08-23T11:04:16.699Z,3.45
2022-08-23T11:07:00.501Z,1.60
2022-08-23T11:09:38.154Z,1.70
2022-08-23T11:12:21.042Z,1.80
2022-08-23T11:15:07.267Z,1.75
2022-08-23T11:17:49.417Z,1.60
2022-08-23T11:20:51.002Z,1.60
2022-08-23T11:23:59.372Z,1.58
2022-08-23T11:26:36.759Z,2.08
2022-08-23T11:29:06.542Z,1.77
2022-08-23T11:31:47.233Z,1.90
2022-08-23T11:34:29.501Z,1.83
2022-08-23T11:37:19.805Z,1.70
2022-08-23T11:39:57.790Z,1.80
2022-08-23T11:42:46.762Z,1.65
2022-08-23T11:45:37.593Z,1.60
2022-08-23T11:48:27.387Z,1.70
2022-08-23T11:50:59.995Z,1.70
2022-08-23T11:53:54.772Z,1.70
2022-08-23T11:56:36.664Z,1.85
2022-08-23T11:59:20.221Z,1.45
2022-08-23T12:01:47.266Z,1.60
2022-08-23T12:04:37.880Z,1.50
2022-08-23T12:07:12.532Z,1.83
2022-08-23T12:09:41.937Z,1.58
2022-08-23T12:12:39.278Z,1.50
2022-08-23T12:15:11.970Z,1.80
2022-08-23T12:17:41.776Z,1.90
2022-08-23T12:20:16.803Z,2.10
2022-08-23T12:22:59.770Z,1.90
2022-08-23T12:25:30.053Z,1.75
2022-08-23T12:28:22.052Z,2.10
2022-08-23T12:31:08.047Z,1.50
2022-08-23T12:34:12.346Z,1.90
2022-08-23T12:37:09.675Z,1.80
2022-08-23T12:39:40.019Z,1.92
2022-08-23T12:42:15.539Z,1.90
2022-08-23T12:44:45.638Z,1.58
2022-08-23T12:47:17.011Z,1.90
2022-08-23T12:49:56.007Z,1.65
2022-08-23T12:52:26.471Z,2.00
2022-08-23T12:54:54.990Z,1.60
2022-08-23T12:57:30.758Z,1.77
2022-08-23T13:00:17.449Z,1.70
2022-08-23T13:02:51.516Z,1.50
2022-08-23T13:05:32.405Z,1.63
2022-08-23T13:08:04.268Z,1.67
2022-08-23T13:10:31.613Z,1.75
2022-08-23T13:12:58.612Z,1.77
2022-08-23T13:15:52.166Z,2.13
2022-08-23T13:18:30.191Z,1.77
2022-08-23T13:21:37.493Z,1.80
2022-08-23T13:24:39.035Z,1.85
2022-08-23T13:27:24.611Z,1.70
2022-08-23T13:29:56.930Z,1.60
2022-08-23T13:32:30.747Z,1.70
2022-08-23T13:35:25.269Z,2.03
2022-08-23T13:37:55.469Z,1.80
2022-08-23T13:40:26.271Z,2.10
2022-08-23T13:43:05.193Z,2.00
2022-08-23T13:45:46.273Z,1.92
2022-08-23T13:48:28.935Z,1.85
2022-08-23T13:51:38.889Z,1.98
2022-08-23T13:54:08.452Z,1.98
2022-08-23T13:56:48.201Z,2.10
2022-08-23T13:59:36.535Z,1.80
2022-08-23T14:02:07.269Z,1.90
2022-08-23T14:04:37.704Z,2.53
2022-08-23T14:07:05.356Z,1.98
2022-08-23T14:09:33.701Z,1.75
2022-08-23T14:12:14.827Z,1.80
2022-08-23T14:14:42.773Z,1.90
2022-08-23T14:17:12.978Z,1.88
2022-08-23T14:22:32.550Z,1.80
2022-08-23T14:25:05.117Z,2.08
2022-08-23T14:27:32.703Z,1.88
2022-08-23T14:30:01.070Z,2.05
2022-08-23T14:32:29.035Z,1.90
2022-08-23T14:34:56.068Z,2.00
2022-08-23T14:40:10.078Z,1.80
2022-08-23T14:42:36.735Z,2.20
2022-08-23T14:45:05.441Z,2.33
2022-08-23T14:47:32.495Z,1.77
2022-08-23T14:49:59.829Z,2.10
2022-08-23T14:52:26.454Z,2.00
2022-08-23T14:54:52.895Z,2.05
2022-08-23T14:57:26.811Z,2.10
2022-08-23T14:59:55.484Z,2.00
2022-08-23T15:02:25.137Z,1.63
2022-08-23T15:04:53.172Z,2.00
2022-08-23T15:07:21.991Z,2.00
2022-08-23T15:09:50.282Z,1.90
2022-08-23T15:15:12.998Z,2.38
2022-08-23T15:17:58.722Z,2.05
2022-08-23T15:20:31.128Z,2.20
2022-08-23T15:22:58.246Z,1.90
2022-08-23T15:25:29.948Z,2.13
2022-08-23T15:27:56.805Z,2.00
2022-08-23T15:30:23.945Z,2.15
2022-08-23T15:32:54.688Z,2.10
2022-08-23T15:35:24.950Z,1.98
2022-08-23T15:37:53.541Z,2.10
2022-08-23T15:40:21.034Z,2.00
2022-08-23T15:42:47.801Z,2.10
2022-08-23T15:45:14.756Z,2.10
2022-08-23T15:47:54.011Z,1.98
2022-08-23T15:50:27.090Z,2.08
2022-08-23T15:52:54.186Z,2.03
2022-08-23T15:55:21.339Z,1.98
2022-08-23T15:57:50.569Z,2.15
2022-08-23T16:00:22.450Z,1.92
2022-08-23T16:03:19.044Z,2.05
2022-08-23T16:05:38.415Z,2.22
2022-08-23T16:08:07.205Z,1.90
2022-08-23T16:10:35.167Z,1.90
2022-08-23T16:13:03.830Z,1.88
2022-08-23T16:15:31.155Z,2.28
2022-08-23T16:17:57.636Z,2.17
2022-08-23T16:20:24.292Z,1.90
2022-08-23T16:22:50.743Z,2.17
2022-08-23T16:25:17.744Z,2.05
2022-08-23T16:27:44.241Z,2.10
2022-08-23T16:30:13.089Z,2.20
2022-08-23T16:32:39.817Z,2.05
2022-08-23T16:35:07.617Z,2.08
2022-08-23T16:37:36.176Z,1.92
2022-08-23T16:40:08.472Z,2.25
2022-08-23T16:42:35.217Z,2.08
2022-08-23T16:45:02.147Z,1.88
2022-08-23T16:47:33.655Z,1.83
2022-08-23T16:50:00.328Z,1.95
2022-08-23T16:52:34.824Z,1.90
2022-08-23T16:55:10.801Z,2.10
2022-08-23T16:57:37.694Z,2.03
2022-08-23T17:00:06.913Z,2.00
2022-08-23T17:02:37.243Z,2.10
2022-08-23T17:05:06.682Z,2.00
2022-08-23T17:07:33.518Z,2.30
2022-08-23T17:10:00.995Z,1.92
2022-08-23T17:12:27.573Z,2.00
2022-08-23T17:14:57.102Z,2.05
2022-08-23T17:17:24.439Z,2.10
2022-08-23T17:19:50.950Z,2.15
2022-08-23T17:22:18.858Z,1.90
2022-08-23T17:24:45.357Z,2.10
2022-08-23T17:27:15.846Z,1.95
2022-08-23T17:29:46.378Z,2.45
2022-08-23T17:32:13.108Z,2.25
2022-08-23T17:34:39.702Z,2.10
2022-08-23T17:37:17.762Z,1.90
2022-08-23T17:39:44.409Z,1.95
2022-08-23T17:42:10.915Z,2.00
2022-08-23T17:44:37.619Z,2.47
2022-08-23T17:47:07.885Z,2.22
2022-08-23T17:49:34.561Z,2.40
2022-08-23T17:52:03.810Z,1.75
2022-08-23T17:54:33.373Z,2.10
2022-08-23T17:57:01.306Z,2.03
2022-08-23T17:59:38.362Z,2.25
2022-08-23T18:02:07.918Z,2.30
2022-08-23T18:04:34.488Z,2.40
2022-08-23T18:07:02.127Z,2.35
2022-08-23T18:09:29.318Z,2.15
2022-08-23T18:11:56.628Z,2.38
2022-08-23T18:14:23.395Z,2.13
2022-08-23T18:16:51.513Z,2.25
2022-08-23T18:19:18.227Z,2.22
2022-08-23T18:21:45.208Z,2.40
2022-08-23T18:24:11.667Z,2.50
2022-08-23T18:26:57.671Z,2.20
2022-08-23T18:29:24.883Z,2.20
2022-08-23T18:31:51.507Z,2.30
2022-08-23T18:34:18.905Z,2.60
2022-08-23T18:36:45.410Z,2.40
2022-08-23T18:39:14.609Z,2.60
2022-08-23T18:41:41.973Z,2.65
2022-08-23T18:44:08.685Z,2.33
2022-08-23T18:46:40.048Z,2.38
2022-08-23T18:49:09.010Z,2.25
2022-08-23T18:51:36.244Z,2.20
2022-08-23T18:54:03.151Z,2.20
2022-08-23T18:56:29.958Z,2.30
2022-08-23T18:58:56.443Z,2.60
2022-08-23T19:01:36.255Z,2.38
2022-08-23T19:04:05.303Z,2.40
2022-08-23T19:06:32.162Z,2.28
2022-08-23T19:09:01.112Z,2.25
2022-08-23T19:11:30.010Z,2.90
2022-08-23T19:13:58.001Z,2.60
2022-08-23T19:16:26.536Z,2.90
2022-08-23T19:18:54.750Z,2.50
2022-08-23T19:21:23.479Z,3.20
2022-08-23T19:23:52.346Z,2.80
2022-08-23T19:26:30.278Z,2.80
2022-08-23T19:28:57.416Z,3.13
2022-08-23T19:31:25.210Z,2.17
2022-08-23T19:33:51.770Z,2.28
2022-08-23T19:36:44.714Z,2.17
2022-08-23T19:39:08.542Z,2.38
2022-08-23T19:41:38.384Z,2.15
2022-08-23T19:44:07.929Z,2.30
2022-08-23T19:47:00.415Z,2.50
2022-08-23T19:49:28.257Z,2.47
2022-08-23T19:51:55.770Z,2.40
2022-08-23T19:54:22.515Z,2.40
2022-08-23T19:56:57.613Z,2.30
2022-08-23T19:59:31.180Z,2.80
2022-08-23T20:01:59.402Z,2.40
2022-08-23T20:04:29.383Z,2.22
2022-08-23T20:06:57.677Z,2.22
2022-08-23T20:09:26.597Z,2.20
2022-08-23T20:11:53.100Z,2.80
2022-08-23T20:14:21.945Z,2.05
2022-08-23T20:16:50.125Z,1.92
2022-08-23T20:19:18.859Z,2.20
2022-08-23T20:21:45.306Z,2.38
2022-08-23T20:24:15.318Z,2.30
2022-08-23T20:26:47.667Z,2.92
2022-08-23T20:29:21.653Z,2.22
2022-08-23T20:31:55.373Z,2.47
2022-08-23T20:34:23.294Z,2.40
2022-08-23T20:36:55.993Z,2.40
2022-08-23T20:39:24.188Z,2.20
2022-08-23T20:41:51.482Z,2.38
2022-08-23T20:44:20.122Z,2.55
2022-08-23T20:46:50.704Z,2.10
2022-08-23T20:49:21.105Z,2.13
2022-08-23T20:51:48.250Z,2.47
2022-08-23T20:54:16.713Z,2.28
2022-08-23T20:56:43.370Z,2.30
2022-08-23T20:59:10.105Z,2.05
2022-08-23T21:01:36.763Z,2.50
2022-08-23T21:04:03.945Z,2.17
2022-08-23T21:06:45.112Z,2.10
2022-08-23T21:09:16.875Z,2.30
2022-08-23T21:11:44.003Z,2.00
2022-08-23T21:14:10.464Z,2.63
2022-08-23T21:16:37.412Z,3.00
2022-08-23T21:19:04.418Z,2.20
2022-08-23T21:21:31.306Z,2.17
2022-08-23T21:23:57.850Z,2.42
2022-08-23T21:26:24.735Z,3.15
2022-08-23T21:28:51.748Z,2.60
2022-08-23T21:31:21.633Z,4.03
2022-08-23T21:33:48.795Z,2.60
2022-08-23T21:36:17.254Z,2.33
2022-08-23T21:38:43.866Z,2.42
2022-08-23T21:41:30.498Z,2.90
2022-08-23T21:43:57.116Z,3.10
2022-08-23T21:46:23.700Z,2.50
2022-08-23T21:48:50.993Z,2.80
2022-08-23T21:51:18.777Z,2.50
2022-08-23T21:53:45.430Z,2.53
2022-08-23T21:56:11.986Z,2.17
2022-08-23T21:58:38.415Z,2.30
2022-08-23T22:01:05.435Z,1.90
2022-08-23T22:03:32.586Z,2.10
2022-08-23T22:05:59.299Z,2.20
2022-08-23T22:08:25.794Z,2.10
2022-08-23T22:10:58.357Z,3.20
2022-08-23T22:13:28.837Z,2.60
2022-08-23T22:15:56.224Z,3.50
2022-08-23T22:18:22.834Z,2.60
2022-08-23T22:20:49.421Z,2.67
2022-08-23T22:23:15.862Z,3.13
2022-08-23T22:25:42.511Z,2.80
2022-08-23T22:28:09.115Z,3.10
2022-08-23T22:30:35.687Z,2.90
2022-08-23T22:33:03.334Z,3.10
2022-08-23T22:35:34.753Z,2.27
2022-08-23T22:38:13.736Z,2.30
2022-08-23T22:40:50.932Z,2.13
2022-08-23T22:43:23.854Z,2.27
2022-08-23T22:46:04.827Z,2.40
2022-08-23T22:48:37.142Z,2.20
2022-08-23T22:51:04.179Z,3.37
2022-08-23T22:53:31.343Z,2.50
2022-08-23T22:55:58.241Z,2.67
2022-08-23T22:58:26.299Z,2.33
2022-08-23T23:00:52.844Z,2.30
2022-08-23T23:03:20.138Z,2.13
2022-08-23T23:05:48.101Z,2.53
2022-08-23T23:08:27.152Z,2.23
2022-08-23T23:11:00.622Z,2.87
2022-08-23T23:13:31.605Z,2.63
2022-08-23T23:16:02.436Z,2.60
2022-08-23T23:18:33.080Z,2.83
2022-08-23T23:21:03.111Z,3.00
2022-08-23T23:23:32.641Z,2.70
2022-08-23T23:26:00.595Z,2.63
2022-08-23T23:28:27.586Z,2.20
2022-08-23T23:30:55.523Z,2.00
2022-08-23T23:33:22.308Z,2.30
2022-08-23T23:35:49.345Z,2.10
2022-08-23T23:38:17.598Z,2.30
2022-08-23T23:40:44.414Z,2.40
2022-08-23T23:43:12.989Z,2.30
2022-08-23T23:45:40.991Z,2.37
2022-08-23T23:48:08.249Z,1.90
2022-08-23T23:50:35.718Z,2.27
2022-08-23T23:53:03.165Z,2.43
2022-08-23T23:55:33.521Z,2.37
2022-08-23T23:58:02.633Z,2.30
